createdAt,value
2022-10-25T00:02:21.295Z,14.29
2022-10-25T00:04:48.019Z,14.27
2022-10-25T00:07:15.141Z,14.30
2022-10-25T00:09:44.108Z,14.48
2022-10-25T00:12:10.780Z,14.48
2022-10-25T00:14:37.909Z,14.50
2022-10-25T00:17:04.705Z,14.35
2022-10-25T00:19:31.296Z,14.50
2022-10-25T00:21:57.923Z,14.32
2022-10-25T00:24:24.677Z,14.48
2022-10-25T00:26:51.423Z,14.47
2022-10-25T00:31:56.453Z,14.43
2022-10-25T00:34:23.201Z,14.49
2022-10-25T00:36:49.943Z,14.37
2022-10-25T00:39:16.546Z,14.39
2022-10-25T00:41:43.175Z,14.54
2022-10-25T00:44:40.911Z,14.56
2022-10-25T00:47:22.696Z,14.57
2022-10-25T00:50:05.949Z,14.56
2022-10-25T00:52:37.062Z,14.44
2022-10-25T00:55:06.481Z,14.44
2022-10-25T00:58:08.579Z,14.59
2022-10-25T01:00:36.503Z,14.58
2022-10-25T01:03:04.400Z,14.46
2022-10-25T01:05:34.777Z,14.53
2022-10-25T01:08:01.660Z,14.63
2022-10-25T01:10:32.104Z,14.53
2022-10-25T01:13:02.098Z,14.61
2022-10-25T01:15:35.502Z,14.42
2022-10-25T01:18:17.794Z,14.58
2022-10-25T01:21:15.768Z,14.60
2022-10-25T01:24:09.647Z,14.65
2022-10-25T01:26:54.735Z,14.66
2022-10-25T01:29:58.830Z,14.60
2022-10-25T01:32:28.544Z,14.57
2022-10-25T01:35:15.221Z,14.59
2022-10-25T01:38:17.513Z,14.63
2022-10-25T01:41:05.061Z,14.63
2022-10-25T01:43:46.922Z,14.66
2022-10-25T01:46:35.335Z,14.65
2022-10-25T01:49:06.032Z,14.56
2022-10-25T01:51:38.990Z,14.64
2022-10-25T01:54:28.063Z,14.66
2022-10-25T01:57:16.748Z,14.68
2022-10-25T02:00:04.084Z,14.68
2022-10-25T02:03:04.797Z,14.68
2022-10-25T02:06:09.727Z,14.69
2022-10-25T02:08:46.884Z,14.70
2022-10-25T02:11:27.241Z,14.70
2022-10-25T02:13:59.652Z,14.71
2022-10-25T02:16:31.510Z,14.58
2022-10-25T02:19:03.471Z,14.35
2022-10-25T02:21:35.571Z,14.68
2022-10-25T02:24:11.990Z,14.62
2022-10-25T02:26:43.537Z,14.72
2022-10-25T02:29:11.835Z,14.73
2022-10-25T02:31:39.072Z,14.64
2022-10-25T02:34:06.516Z,14.54
2022-10-25T02:36:33.216Z,14.57
2022-10-25T02:39:00.287Z,14.59
2022-10-25T02:41:27.179Z,14.55
2022-10-25T02:43:53.823Z,14.71
2022-10-25T02:46:22.223Z,14.73
2022-10-25T02:48:50.014Z,14.73
2022-10-25T02:51:18.190Z,14.45
2022-10-25T02:53:45.133Z,14.56
2022-10-25T02:56:14.691Z,14.58
2022-10-25T02:58:43.782Z,14.42
2022-10-25T03:01:11.573Z,14.46
2022-10-25T03:03:38.795Z,14.27
2022-10-25T03:06:06.238Z,14.39
2022-10-25T03:08:33.849Z,14.23
2022-10-25T03:11:00.860Z,14.29
2022-10-25T03:13:29.954Z,14.09
2022-10-25T03:15:56.683Z,14.17
2022-10-25T03:18:23.437Z,14.15
2022-10-25T03:20:50.858Z,14.17
2022-10-25T03:23:19.082Z,13.99
2022-10-25T03:25:46.624Z,14.05
2022-10-25T03:28:17.885Z,14.06
2022-10-25T03:30:44.520Z,13.95
2022-10-25T03:33:11.144Z,14.05
2022-10-25T03:35:38.038Z,14.03
2022-10-25T03:38:04.821Z,14.00
2022-10-25T03:40:34.143Z,13.82
2022-10-25T03:43:01.210Z,13.74
2022-10-25T03:45:27.839Z,13.70
2022-10-25T03:47:56.672Z,13.78
2022-10-25T03:50:26.104Z,13.69
2022-10-25T03:52:52.852Z,13.84
2022-10-25T03:55:19.484Z,13.82
2022-10-25T03:57:46.431Z,13.80
2022-10-25T04:00:14.020Z,13.62
2022-10-25T04:02:40.678Z,13.63
2022-10-25T04:05:10.070Z,13.55
2022-10-25T04:07:37.077Z,13.67
2022-10-25T04:10:04.634Z,13.66
2022-10-25T04:12:32.269Z,13.62
2022-10-25T04:15:01.908Z,13.43
2022-10-25T04:17:28.612Z,13.59
2022-10-25T04:19:55.436Z,13.57
2022-10-25T04:22:22.198Z,13.48
2022-10-25T04:24:48.971Z,13.54
2022-10-25T04:27:15.584Z,13.42
2022-10-25T04:29:44.781Z,13.47
2022-10-25T04:32:11.911Z,13.46
2022-10-25T04:34:38.633Z,13.43
2022-10-25T04:37:05.294Z,13.44
2022-10-25T04:39:32.111Z,13.41
2022-10-25T04:41:58.975Z,13.40
2022-10-25T04:44:25.679Z,13.38
2022-10-25T04:46:52.415Z,13.34
2022-10-25T04:49:21.825Z,13.33
2022-10-25T04:51:48.512Z,13.32
2022-10-25T04:54:15.266Z,13.30
2022-10-25T04:56:42.046Z,13.28
2022-10-25T04:59:12.586Z,13.24
2022-10-25T05:01:39.361Z,13.24
2022-10-25T05:04:06.030Z,13.21
2022-10-25T05:06:32.817Z,13.03
2022-10-25T05:09:01.782Z,13.17
2022-10-25T05:11:30.961Z,13.14
2022-10-25T05:13:57.638Z,12.96
2022-10-25T05:16:25.747Z,13.09
2022-10-25T05:18:57.167Z,13.10
2022-10-25T05:21:30.839Z,13.06
2022-10-25T05:24:02.110Z,12.92
2022-10-25T05:26:30.326Z,13.05
2022-10-25T05:28:57.496Z,12.93
2022-10-25T05:31:29.394Z,13.04
2022-10-25T05:34:00.675Z,13.02
2022-10-25T05:36:33.011Z,12.97
2022-10-25T05:39:01.132Z,12.93
2022-10-25T05:41:29.656Z,12.97
2022-10-25T05:43:59.907Z,12.93
2022-10-25T05:46:26.606Z,12.92
2022-10-25T05:48:54.039Z,12.93
2022-10-25T05:51:32.852Z,12.83
2022-10-25T05:54:05.731Z,12.77
2022-10-25T05:56:33.816Z,12.90
2022-10-25T05:59:11.538Z,12.89
2022-10-25T06:01:43.939Z,12.67
2022-10-25T06:04:11.666Z,12.85
2022-10-25T06:06:40.083Z,12.83
2022-10-25T06:09:11.426Z,12.72
2022-10-25T06:11:40.716Z,12.85
2022-10-25T06:14:09.552Z,12.82
2022-10-25T06:16:37.466Z,12.86
2022-10-25T06:19:09.883Z,12.69
2022-10-25T06:21:36.966Z,12.86
2022-10-25T06:24:04.612Z,12.85
2022-10-25T06:26:31.782Z,12.79
2022-10-25T06:29:01.437Z,12.88
2022-10-25T06:31:32.757Z,12.87
2022-10-25T06:34:01.629Z,12.88
2022-10-25T06:36:30.788Z,12.83
2022-10-25T06:39:02.163Z,12.77
2022-10-25T06:41:34.098Z,12.87
2022-10-25T06:44:05.397Z,12.78
2022-10-25T06:46:57.854Z,12.96
2022-10-25T06:49:25.542Z,12.98
2022-10-25T06:51:52.223Z,13.07
2022-10-25T06:54:19.122Z,13.15
2022-10-25T06:56:48.398Z,13.20
2022-10-25T06:59:15.054Z,13.08
2022-10-25T07:01:42.276Z,13.22
2022-10-25T07:06:55.142Z,13.24
2022-10-25T07:09:22.555Z,13.23
2022-10-25T07:11:49.192Z,13.27
2022-10-25T07:14:15.833Z,13.26
2022-10-25T07:16:42.442Z,13.33
2022-10-25T07:19:12.387Z,13.30
2022-10-25T07:21:41.274Z,13.52
2022-10-25T07:24:11.795Z,13.55
2022-10-25T07:26:39.016Z,13.59
2022-10-25T07:29:08.190Z,13.68
2022-10-25T07:31:41.548Z,13.70
2022-10-25T07:34:09.733Z,13.83
2022-10-25T07:36:38.597Z,13.85
2022-10-25T07:39:05.748Z,13.94
2022-10-25T07:41:33.353Z,14.00
2022-10-25T07:43:59.993Z,14.13
2022-10-25T07:46:29.058Z,14.16
2022-10-25T07:48:56.669Z,14.23
2022-10-25T07:51:23.422Z,14.18
2022-10-25T07:53:51.099Z,14.42
2022-10-25T07:56:23.475Z,14.65
2022-10-25T07:58:50.507Z,14.81
2022-10-25T08:01:23.596Z,14.84
2022-10-25T08:03:52.389Z,14.79
2022-10-25T08:06:20.141Z,14.85
2022-10-25T08:08:46.808Z,14.76
2022-10-25T08:11:13.673Z,14.87
2022-10-25T08:13:41.084Z,15.14
2022-10-25T08:16:08.196Z,15.18
2022-10-25T08:18:36.324Z,15.14
2022-10-25T08:21:04.526Z,15.06
2022-10-25T08:23:35.215Z,14.96
2022-10-25T08:26:02.692Z,14.93
2022-10-25T08:28:31.459Z,14.95
2022-10-25T08:30:58.521Z,15.01
2022-10-25T08:33:27.881Z,15.02
2022-10-25T08:35:54.702Z,15.08
2022-10-25T08:38:24.255Z,15.09
2022-10-25T08:41:06.921Z,15.18
2022-10-25T08:46:33.561Z,15.30
2022-10-25T08:49:18.432Z,15.61
2022-10-25T08:51:47.819Z,15.61
2022-10-25T08:54:30.977Z,15.65
2022-10-25T08:57:15.542Z,15.77
2022-10-25T08:59:50.716Z,15.81
2022-10-25T09:02:38.256Z,15.96
2022-10-25T09:05:13.689Z,16.26
2022-10-25T09:07:56.522Z,16.47
2022-10-25T09:10:50.614Z,16.47
2022-10-25T09:13:32.555Z,16.44
2022-10-25T09:16:04.888Z,16.64
2022-10-25T09:18:43.464Z,16.75
2022-10-25T09:21:22.837Z,17.15
2022-10-25T09:24:11.868Z,17.15
2022-10-25T09:26:41.161Z,17.35
2022-10-25T09:29:19.613Z,17.47
2022-10-25T09:31:51.154Z,17.43
2022-10-25T09:34:20.462Z,17.36
2022-10-25T09:36:54.311Z,17.20
2022-10-25T09:39:45.167Z,17.13
2022-10-25T09:42:19.973Z,17.28
2022-10-25T09:44:54.995Z,17.31
2022-10-25T09:47:35.594Z,17.47
2022-10-25T09:50:10.669Z,17.47
2022-10-25T09:52:40.309Z,17.64
2022-10-25T09:55:28.839Z,17.42
2022-10-25T09:57:58.182Z,17.58
2022-10-25T10:00:24.962Z,17.59
2022-10-25T10:02:51.986Z,17.55
2022-10-25T10:05:21.966Z,17.55
2022-10-25T10:07:50.759Z,17.51
2022-10-25T10:10:24.763Z,17.38
2022-10-25T10:13:13.014Z,17.52
2022-10-25T10:16:02.252Z,17.68
2022-10-25T10:18:31.960Z,17.76
2022-10-25T10:21:10.827Z,17.85
2022-10-25T10:23:43.218Z,17.82
2022-10-25T10:26:21.983Z,17.80
2022-10-25T10:28:52.205Z,17.74
2022-10-25T10:31:19.837Z,17.72
2022-10-25T10:33:51.793Z,17.55
2022-10-25T10:36:28.736Z,17.66
2022-10-25T10:39:13.824Z,17.54
2022-10-25T10:42:01.109Z,17.70
2022-10-25T10:44:30.281Z,17.79
2022-10-25T10:46:57.273Z,17.85
2022-10-25T10:49:37.489Z,17.87
2022-10-25T10:52:05.239Z,17.69
2022-10-25T10:54:37.512Z,17.90
2022-10-25T10:57:09.062Z,18.14
2022-10-25T10:59:45.983Z,18.23
2022-10-25T11:02:24.043Z,18.29
2022-10-25T11:04:53.245Z,18.25
2022-10-25T11:07:35.420Z,18.29
2022-10-25T11:10:17.471Z,18.32
2022-10-25T11:12:44.491Z,18.42
2022-10-25T11:15:12.965Z,18.64
2022-10-25T11:18:04.379Z,18.77
2022-10-25T11:20:53.477Z,18.87
2022-10-25T11:23:39.046Z,18.87
2022-10-25T11:26:18.408Z,19.02
2022-10-25T11:28:47.871Z,19.04
2022-10-25T11:31:35.131Z,19.03
2022-10-25T11:34:15.217Z,18.96
2022-10-25T11:37:06.815Z,19.15
2022-10-25T11:39:51.383Z,19.15
2022-10-25T11:42:59.555Z,19.26
2022-10-25T11:45:35.933Z,19.32
2022-10-25T11:48:09.504Z,19.47
2022-10-25T11:51:01.267Z,19.42
2022-10-25T11:53:31.066Z,19.25
2022-10-25T11:56:11.608Z,19.19
2022-10-25T11:58:50.418Z,19.21
2022-10-25T12:01:35.416Z,18.86
2022-10-25T12:04:39.372Z,19.08
2022-10-25T12:07:17.830Z,19.12
2022-10-25T12:10:15.831Z,19.31
2022-10-25T12:13:12.236Z,19.24
2022-10-25T12:15:41.865Z,19.38
2022-10-25T12:18:15.913Z,19.42
2022-10-25T12:20:46.435Z,19.44
2022-10-25T12:23:18.179Z,19.49
2022-10-25T12:25:54.821Z,19.46
2022-10-25T12:28:51.671Z,19.68
2022-10-25T12:31:26.963Z,19.52
2022-10-25T12:34:32.165Z,19.76
2022-10-25T12:37:06.239Z,19.65
2022-10-25T12:39:41.385Z,19.94
2022-10-25T12:42:23.655Z,19.77
2022-10-25T12:44:50.182Z,20.08
2022-10-25T12:47:35.550Z,20.11
2022-10-25T12:50:53.029Z,20.01
2022-10-25T12:53:34.465Z,20.11
2022-10-25T12:56:02.862Z,20.02
2022-10-25T12:58:47.976Z,19.96
2022-10-25T13:01:39.060Z,20.01
2022-10-25T13:04:06.061Z,20.09
2022-10-25T13:06:40.576Z,20.07
2022-10-25T13:09:13.962Z,19.88
2022-10-25T13:11:47.023Z,19.92
2022-10-25T13:14:21.273Z,19.85
2022-10-25T13:16:48.220Z,19.87
2022-10-25T13:19:30.625Z,19.70
2022-10-25T13:22:35.614Z,19.54
2022-10-25T13:25:13.487Z,19.38
2022-10-25T13:28:00.997Z,19.21
2022-10-25T13:30:32.053Z,19.09
2022-10-25T13:33:24.356Z,19.04
2022-10-25T13:35:51.237Z,18.98
2022-10-25T13:38:23.345Z,18.78
2022-10-25T13:41:08.483Z,18.91
2022-10-25T13:43:36.199Z,19.02
2022-10-25T13:46:03.324Z,19.11
2022-10-25T13:48:33.492Z,19.18
2022-10-25T13:51:14.227Z,19.23
2022-10-25T13:53:49.783Z,19.29
2022-10-25T13:56:47.784Z,19.29
2022-10-25T13:59:57.318Z,19.28
2022-10-25T14:02:24.064Z,19.28
2022-10-25T14:04:51.177Z,19.23
2022-10-25T14:07:47.342Z,19.21
2022-10-25T14:10:33.125Z,18.99
2022-10-25T14:13:07.439Z,19.12
2022-10-25T14:15:41.371Z,19.11
2022-10-25T14:18:17.609Z,19.09
2022-10-25T14:20:50.630Z,19.03
2022-10-25T14:23:27.336Z,18.80
2022-10-25T14:26:00.314Z,18.91
2022-10-25T14:28:35.191Z,18.87
2022-10-25T14:31:04.380Z,18.84
2022-10-25T14:33:39.428Z,18.78
2022-10-25T14:36:22.190Z,18.75
2022-10-25T14:38:50.247Z,18.71
2022-10-25T14:41:28.099Z,18.58
2022-10-25T14:43:55.197Z,18.69
2022-10-25T14:46:24.877Z,18.90
2022-10-25T14:48:57.983Z,18.72
2022-10-25T14:51:45.726Z,18.68
2022-10-25T14:54:12.366Z,18.70
2022-10-25T14:56:49.139Z,18.56
2022-10-25T14:59:26.627Z,18.63
2022-10-25T15:01:58.338Z,18.58
2022-10-25T15:04:28.203Z,18.51
2022-10-25T15:06:57.627Z,18.35
2022-10-25T15:09:43.315Z,18.22
2022-10-25T15:12:13.160Z,18.28
2022-10-25T15:14:39.867Z,18.05
2022-10-25T15:17:17.022Z,18.21
2022-10-25T15:20:03.998Z,18.09
2022-10-25T15:22:30.579Z,18.12
2022-10-25T15:24:59.467Z,18.13
2022-10-25T15:27:26.370Z,18.14
2022-10-25T15:29:53.112Z,18.12
2022-10-25T15:32:23.216Z,18.14
2022-10-25T15:34:53.503Z,17.99
2022-10-25T15:37:23.003Z,18.10
2022-10-25T15:39:52.087Z,17.90
2022-10-25T15:42:19.658Z,17.93
2022-10-25T15:44:46.399Z,17.85
2022-10-25T15:47:24.979Z,17.78
2022-10-25T15:49:53.355Z,17.90
2022-10-25T15:52:20.037Z,17.78
2022-10-25T15:54:47.843Z,17.78
2022-10-25T15:57:16.986Z,17.66
2022-10-25T15:59:44.736Z,17.36
2022-10-25T16:02:30.563Z,17.38
2022-10-25T16:04:57.341Z,17.25
2022-10-25T16:07:24.418Z,17.01
2022-10-25T16:09:51.976Z,17.09
2022-10-25T16:12:22.547Z,16.97
2022-10-25T16:14:53.170Z,16.87
2022-10-25T16:17:19.930Z,16.79
2022-10-25T16:19:48.919Z,16.69
2022-10-25T16:22:15.744Z,16.64
2022-10-25T16:24:42.603Z,16.59
2022-10-25T16:27:12.494Z,16.44
2022-10-25T16:29:39.744Z,16.31
2022-10-25T16:32:06.769Z,16.30
2022-10-25T16:34:33.652Z,16.12
2022-10-25T16:37:03.429Z,16.21
2022-10-25T16:39:32.192Z,16.11
2022-10-25T16:41:59.293Z,16.04
2022-10-25T16:44:28.111Z,15.96
2022-10-25T16:46:54.892Z,15.76
2022-10-25T16:49:21.597Z,15.82
2022-10-25T16:51:50.312Z,15.75
2022-10-25T16:54:18.782Z,15.66
2022-10-25T16:56:48.623Z,15.61
2022-10-25T16:59:15.461Z,15.54
2022-10-25T17:01:45.143Z,15.49
2022-10-25T17:04:18.187Z,15.44
2022-10-25T17:06:47.067Z,15.38
2022-10-25T17:09:13.728Z,15.32
2022-10-25T17:11:41.112Z,15.29
2022-10-25T17:14:09.893Z,15.25
2022-10-25T17:16:39.255Z,15.21
2022-10-25T17:19:05.968Z,15.16
2022-10-25T17:21:35.403Z,14.94
2022-10-25T17:24:03.696Z,15.09
2022-10-25T17:26:30.599Z,15.04
2022-10-25T17:29:01.045Z,14.88
2022-10-25T17:31:28.503Z,14.96
2022-10-25T17:33:56.890Z,14.91
2022-10-25T17:36:23.484Z,14.89
2022-10-25T17:38:50.764Z,14.65
2022-10-25T17:41:19.811Z,14.81
2022-10-25T17:43:46.435Z,14.69
2022-10-25T17:46:25.598Z,14.74
2022-10-25T17:48:58.789Z,14.54
2022-10-25T17:51:28.026Z,14.58
2022-10-25T17:53:57.512Z,14.40
2022-10-25T17:56:26.206Z,14.52
2022-10-25T17:58:53.916Z,14.54
2022-10-25T18:01:23.832Z,14.52
2022-10-25T18:03:52.931Z,14.48
2022-10-25T18:08:54.506Z,14.45
2022-10-25T18:11:23.433Z,14.40
2022-10-25T18:13:56.325Z,14.37
2022-10-25T18:16:26.265Z,14.29
2022-10-25T18:18:59.737Z,14.30
2022-10-25T18:21:29.385Z,14.25
2022-10-25T18:24:01.732Z,14.12
2022-10-25T18:26:29.537Z,14.17
2022-10-25T18:28:58.057Z,13.99
2022-10-25T18:31:27.089Z,14.11
2022-10-25T18:33:59.332Z,14.10
2022-10-25T18:36:27.570Z,14.05
2022-10-25T18:38:57.016Z,14.00
2022-10-25T18:41:26.510Z,13.80
2022-10-25T18:43:56.719Z,13.94
2022-10-25T18:46:24.557Z,13.90
2022-10-25T18:48:54.709Z,13.86
2022-10-25T18:51:23.418Z,13.84
2022-10-25T18:53:55.011Z,13.81
2022-10-25T18:56:22.466Z,13.78
2022-10-25T18:58:49.681Z,13.75
2022-10-25T19:01:20.941Z,13.66
2022-10-25T19:03:47.960Z,13.68
2022-10-25T19:06:14.532Z,13.64
2022-10-25T19:08:41.211Z,13.61
2022-10-25T19:11:10.614Z,13.59
2022-10-25T19:13:37.889Z,13.56
2022-10-25T19:16:08.455Z,13.38
2022-10-25T19:18:36.633Z,13.32
2022-10-25T19:21:12.150Z,13.30
2022-10-25T19:23:41.680Z,13.43
2022-10-25T19:26:10.784Z,13.25
2022-10-25T19:28:39.793Z,13.22
2022-10-25T19:31:12.570Z,13.34
2022-10-25T19:33:44.308Z,13.31
2022-10-25T19:36:11.894Z,13.25
2022-10-25T19:38:39.258Z,13.27
2022-10-25T19:41:09.671Z,13.08
2022-10-25T19:43:36.954Z,13.19
2022-10-25T19:46:05.910Z,13.17
2022-10-25T19:48:33.210Z,13.14
2022-10-25T19:51:09.394Z,13.09
2022-10-25T19:53:36.738Z,12.97
2022-10-25T19:56:12.528Z,12.99
2022-10-25T19:58:39.843Z,13.00
2022-10-25T20:01:19.509Z,13.01
2022-10-25T20:03:50.011Z,12.78
2022-10-25T20:06:23.525Z,12.95
2022-10-25T20:08:52.684Z,12.96
2022-10-25T20:11:20.495Z,12.75
2022-10-25T20:13:47.228Z,12.91
2022-10-25T20:16:17.585Z,12.89
2022-10-25T20:18:44.249Z,12.89
2022-10-25T20:21:35.211Z,12.88
2022-10-25T20:24:06.767Z,12.87
2022-10-25T20:26:36.601Z,12.85
2022-10-25T20:29:06.927Z,12.65
2022-10-25T20:31:34.885Z,12.80
2022-10-25T20:34:04.366Z,12.77
2022-10-25T20:36:33.323Z,12.74
2022-10-25T20:39:00.123Z,12.75
2022-10-25T20:41:30.426Z,12.58
2022-10-25T20:44:00.055Z,12.65
2022-10-25T20:46:28.587Z,12.57
2022-10-25T20:48:59.104Z,12.55
2022-10-25T20:51:26.675Z,12.67
2022-10-25T20:53:57.069Z,12.64
2022-10-25T20:56:24.313Z,12.43
2022-10-25T20:58:50.924Z,12.56
2022-10-25T21:01:19.894Z,12.46
2022-10-25T21:03:48.998Z,12.42
2022-10-25T21:06:15.850Z,12.53
2022-10-25T21:08:42.628Z,12.52
2022-10-25T21:11:12.302Z,12.30
2022-10-25T21:13:39.505Z,12.47
2022-10-25T21:16:06.825Z,12.29
2022-10-25T21:18:34.378Z,12.39
2022-10-25T21:21:03.564Z,12.35
2022-10-25T21:23:31.241Z,12.38
2022-10-25T21:25:59.843Z,12.37
2022-10-25T21:28:27.150Z,12.37
2022-10-25T21:30:54.432Z,12.32
2022-10-25T21:33:21.279Z,12.34
2022-10-25T21:35:50.136Z,12.29
2022-10-25T21:38:16.699Z,12.18
2022-10-25T21:40:43.287Z,12.28
2022-10-25T21:43:09.970Z,12.25
2022-10-25T21:45:41.401Z,12.03
2022-10-25T21:48:08.272Z,11.71
2022-10-25T21:50:34.845Z,12.01
2022-10-25T21:53:01.580Z,12.14
2022-10-25T21:55:28.189Z,12.05
2022-10-25T21:57:56.863Z,11.92
2022-10-25T22:00:26.032Z,12.09
2022-10-25T22:02:52.704Z,11.93
2022-10-25T22:05:19.320Z,12.03
2022-10-25T22:07:51.174Z,12.01
2022-10-25T22:10:18.167Z,11.85
2022-10-25T22:12:45.177Z,11.93
2022-10-25T22:15:11.977Z,11.96
2022-10-25T22:17:38.856Z,11.98
2022-10-25T22:20:06.100Z,11.83
2022-10-25T22:22:32.719Z,11.97
2022-10-25T22:25:01.799Z,11.95
2022-10-25T22:27:28.371Z,11.91
2022-10-25T22:29:54.998Z,11.81
2022-10-25T22:32:21.609Z,11.75
2022-10-25T22:34:48.328Z,11.75
2022-10-25T22:37:17.282Z,11.91
2022-10-25T22:39:44.085Z,11.90
2022-10-25T22:42:13.667Z,11.94
2022-10-25T22:44:40.292Z,11.94
2022-10-25T22:47:06.941Z,11.92
2022-10-25T22:49:33.923Z,11.63
2022-10-25T22:52:00.550Z,11.90
2022-10-25T22:54:27.283Z,11.92
2022-10-25T22:56:54.002Z,11.76
2022-10-25T22:59:20.776Z,11.90
2022-10-25T23:01:47.444Z,11.92
2022-10-25T23:04:14.173Z,11.69
2022-10-25T23:06:40.958Z,11.88
2022-10-25T23:09:10.264Z,11.68
2022-10-25T23:11:38.616Z,11.83
2022-10-25T23:14:14.699Z,11.84
2022-10-25T23:16:44.118Z,11.62
2022-10-25T23:19:10.680Z,11.69
2022-10-25T23:21:37.245Z,11.68
2022-10-25T23:24:04.134Z,11.82
2022-10-25T23:26:36.734Z,11.81
2022-10-25T23:29:04.661Z,11.81
2022-10-25T23:31:31.904Z,11.80
2022-10-25T23:34:00.403Z,11.71
2022-10-25T23:36:37.912Z,11.79
2022-10-25T23:39:09.483Z,11.82
2022-10-25T23:41:36.809Z,11.85
2022-10-25T23:44:03.566Z,11.86
2022-10-25T23:46:30.237Z,11.68
2022-10-25T23:48:57.862Z,11.66
2022-10-25T23:51:24.443Z,11.87
2022-10-25T23:53:51.584Z,11.82
2022-10-25T23:56:18.222Z,11.84
2022-10-25T23:58:44.866Z,11.76
